Aviation Digital Data Service (ADDS)

Output produced by METARs form (1701 UTC 17 October 2017)
found at http://aviationweather.gov/adds/metars/
 
KEWR 171530Z 1716/1818 01007KT P6SM SKC 
     FM171800 31005KT P6SM SKC 
     FM172000 27005KT P6SM SKC 
     FM172200 22006KT P6SM SKC 
     FM181400 27005KT P6SM SKC